Time;durP1;ratioP1;P1;durP2;ratioP2;P2;SDS_P1;SDS_P2;PMS_P1;PMS_P2;Temp;Humidity;BMP_temperature;BMP_pressure;BME280_temperature;BME280_humidity;BME280_pressure;Samples;Min_cycle;Max_cycle;Signal;HPM_P1;HPM_P2
2023/03/30 00:01:41;;;;;;;261.06;76.58;;;;;;;5.72;47.50;100205.44;2492329;27;20273;-79
2023/03/30 00:01:55;;;;;;;276.35;86.13;;;;;;;5.72;47.15;100204.59;351519;28;1377;-79
2023/03/30 00:02:05;;;;;;;276.98;85.95;;;;;;;5.69;47.67;100203.75;348952;28;3351;-79
2023/03/30 00:02:17;;;;;;;269.73;81.37;;;;;;;5.69;47.42;100205.47;349000;28;1239;-79
2023/03/30 00:02:37;;;;;;;268.92;81.22;;;;;;;5.72;47.76;100208.03;346650;28;4915;-78
2023/03/30 00:02:49;;;;;;;274.27;83.60;;;;;;;5.72;48.03;100204.59;347849;28;1305;-79
2023/03/30 00:03:01;;;;;;;274.80;82.78;;;;;;;5.73;47.66;100201.13;347887;28;3475;-79
2023/03/30 00:03:12;;;;;;;272.58;82.25;;;;;;;5.69;47.79;100208.94;347505;28;1445;-79
2023/03/30 00:03:22;;;;;;;270.23;82.83;;;;;;;5.72;47.70;100204.59;344229;28;3909;-79
2023/03/30 00:03:33;;;;;;;270.77;82.50;;;;;;;5.71;47.63;100213.25;345605;28;3715;-79
2023/03/30 00:03:43;;;;;;;277.93;84.73;;;;;;;5.67;47.81;100197.72;346391;28;1311;-79
2023/03/30 00:03:54;;;;;;;277.17;83.57;;;;;;;5.72;47.46;100202.84;350220;28;1240;-79
2023/03/30 00:04:05;;;;;;;275.67;83.03;;;;;;;5.69;47.58;100198.56;350016;28;3546;-79
2023/03/30 00:04:17;;;;;;;270.83;81.50;;;;;;;5.73;47.52;100206.31;345216;28;3629;-79
2023/03/30 00:04:33;;;;;;;272.08;82.55;;;;;;;5.68;47.60;100199.44;346902;28;3364;-79
2023/03/30 00:04:43;;;;;;;273.95;82.13;;;;;;;5.75;47.22;100213.19;347532;28;1514;-79
2023/03/30 00:04:54;;;;;;;275.13;80.78;;;;;;;5.72;47.36;100202.00;347452;28;3607;-79
2023/03/30 00:05:05;;;;;;;275.37;80.13;;;;;;;5.71;47.01;100205.47;348803;28;1048;-79
2023/03/30 00:05:16;;;;;;;269.50;77.25;;;;;;;5.73;46.75;100208.91;346938;28;3893;-79
2023/03/30 00:05:26;;;;;;;266.13;76.07;;;;;;;5.69;47.05;100206.34;349543;28;3263;-79
2023/03/30 00:05:37;;;;;;;264.27;74.88;;;;;;;5.65;47.17;100209.84;347664;28;1275;-79
2023/03/30 00:05:50;;;;;;;269.57;77.53;;;;;;;5.68;47.30;100204.63;347354;28;847;-79
2023/03/30 00:06:02;;;;;;;269.35;76.30;;;;;;;5.66;47.55;98796.72;348846;28;3578;-79
2023/03/30 00:06:19;;;;;;;266.20;74.05;;;;;;;5.66;47.43;100195.13;349383;28;3789;-79
2023/03/30 00:06:30;;;;;;;270.08;76.03;;;;;;;5.63;47.29;100187.41;345470;28;4029;-78
2023/03/30 00:06:41;;;;;;;270.97;76.97;;;;;;;5.71;47.31;100202.88;347049;28;1457;-79
2023/03/30 00:06:52;;;;;;;268.42;75.82;;;;;;;5.60;47.45;100188.31;349220;28;3519;-79
2023/03/30 00:07:05;;;;;;;269.15;75.03;;;;;;;5.71;47.42;100202.88;351738;28;1237;-79
2023/03/30 00:07:15;;;;;;;265.98;73.57;;;;;;;5.69;47.89;100203.75;346152;28;4351;-79
2023/03/30 00:07:26;;;;;;;265.67;74.93;;;;;;;5.68;47.80;100199.44;348500;28;3272;-78
2023/03/30 00:07:37;;;;;;;269.92;77.97;;;;;;;5.69;49.49;100210.69;345558;28;1090;-78
2023/03/30 00:07:47;;;;;;;272.33;79.13;;;;;;;5.68;48.74;100204.63;343708;28;1290;-79
2023/03/30 00:07:57;;;;;;;273.50;78.73;;;;;;;5.65;48.90;100199.47;343886;28;3563;-78
2023/03/30 00:08:08;;;;;;;266.17;75.13;;;;;;;5.64;49.69;100207.28;345681;28;3097;-78
2023/03/30 00:08:19;;;;;;;265.07;75.23;;;;;;;5.65;50.03;100196.88;342750;28;5067;-79
2023/03/30 00:08:29;;;;;;;261.40;74.68;;;;;;;5.62;49.41;100204.72;343390;28;3656;-78
2023/03/30 00:08:40;;;;;;;265.60;76.67;;;;;;;5.61;49.38;100203.00;344774;28;1291;-78
2023/03/30 00:08:57;;;;;;;264.52;75.78;;;;;;;5.57;50.27;100196.13;340804;29;3565;-79
2023/03/30 00:09:08;;;;;;;260.85;73.30;;;;;;;5.55;49.53;100195.28;344482;28;1279;-79
2023/03/30 00:09:18;;;;;;;261.15;73.65;;;;;;;5.58;49.70;100203.03;342142;28;5158;-81
2023/03/30 00:09:31;;;;;;;264.00;75.72;;;;;;;5.55;49.75;100200.47;340347;29;3483;-80
2023/03/30 00:09:42;;;;;;;269.67;77.55;;;;;;;5.42;50.53;100185.91;340950;29;1362;-79
2023/03/30 00:09:53;;;;;;;269.13;75.65;;;;;;;5.49;49.89;100202.28;339846;28;3604;-79
2023/03/30 00:10:05;;;;;;;271.50;75.57;;;;;;;5.50;49.89;100204.84;339531;29;1452;-78
2023/03/30 00:10:16;;;;;;;266.73;73.57;;;;;;;5.48;50.32;100204.00;338388;28;3871;-79
2023/03/30 00:10:28;;;;;;;265.55;73.65;;;;;;;5.44;49.36;100199.72;338042;29;1198;-79
2023/03/30 00:10:43;;;;;;;264.20;74.32;;;;;;;5.48;49.51;100206.59;337335;29;4051;-79
2023/03/30 00:11:04;;;;;;;263.10;75.47;;;;;;;5.45;50.86;100204.03;338086;29;3565;-79
2023/03/30 00:11:15;;;;;;;264.58;74.22;;;;;;;5.43;50.63;100203.19;336526;29;3504;-79
2023/03/30 00:11:26;;;;;;;265.40;74.13;;;;;;;5.47;50.69;100204.03;335008;29;1433;-79
2023/03/30 00:11:36;;;;;;;263.10;74.03;;;;;;;5.47;51.62;100210.06;335341;29;4273;-78
2023/03/30 00:11:47;;;;;;;263.77;74.82;;;;;;;5.41;51.68;100194.56;335470;29;3336;-79
2023/03/30 00:12:02;;;;;;;268.60;78.60;;;;;;;5.43;52.04;100195.41;333075;29;1193;-78
2023/03/30 00:12:14;;;;;;;272.00;79.25;;;;;;;5.43;51.58;100200.59;327851;30;3633;-78
2023/03/30 00:12:26;;;;;;;271.30;76.90;;;;;;;5.39;51.39;100185.94;324965;30;1671;-78
2023/03/30 00:12:37;;;;;;;263.12;73.96;;;;;;;5.44;50.83;100199.72;317207;30;3504;-78
2023/03/30 00:12:49;;;;;;;262.97;74.17;;;;;;;5.40;41.47;76740.59;315523;31;1640;-77
2023/03/30 00:13:00;;;;;;;263.95;75.13;;;;;;;5.39;51.19;100195.44;315686;31;3299;-78
2023/03/30 00:13:11;;;;;;;263.65;74.15;;;;;;;5.41;50.96;100197.16;319117;30;3738;-77
2023/03/30 00:13:22;;;;;;;263.98;74.45;;;;;;;5.35;51.11;100190.28;316965;31;3275;-78
2023/03/30 00:13:33;;;;;;;264.25;74.50;;;;;;;5.42;50.28;100196.28;317104;30;5051;-78
2023/03/30 00:13:44;;;;;;;265.52;76.43;;;;;;;5.42;49.75;100196.28;317784;30;2961;-78
2023/03/30 00:13:54;;;;;;;267.83;78.73;;;;;;;5.42;48.85;100195.41;317573;30;3927;-79
2023/03/30 00:14:04;;;;;;;273.08;80.18;;;;;;;5.35;48.71;100189.44;313570;31;3403;-79
2023/03/30 00:14:16;;;;;;;273.87;79.37;;;;;;;5.35;48.25;100194.63;308844;31;3981;-78
2023/03/30 00:14:30;;;;;;;270.77;76.40;;;;;;;5.28;48.35;100190.38;308521;31;3268;-79
2023/03/30 00:14:41;;;;;;;262.13;73.43;;;;;;;5.27;48.99;100191.25;310935;31;3678;-79
2023/03/30 00:14:52;;;;;;;262.85;74.55;;;;;;;5.26;49.14;100189.53;310326;31;3315;-77
2023/03/30 00:15:04;;;;;;;265.40;75.43;;;;;;;5.20;48.51;100180.06;305991;32;4084;-79
2023/03/30 00:15:16;;;;;;;269.88;76.60;;;;;;;5.31;48.91;100198.97;302925;32;3254;-78
2023/03/30 00:15:27;;;;;;;267.30;75.45;;;;;;;5.29;48.01;100187.75;303223;32;1209;-78
2023/03/30 00:15:38;;;;;;;266.70;76.10;;;;;;;5.30;48.10;100179.09;303570;32;5855;-78
2023/03/30 00:15:48;;;;;;;267.63;76.82;;;;;;;5.34;48.39;100192.91;305391;32;3385;-79
2023/03/30 00:15:59;;;;;;;268.83;77.78;;;;;;;5.36;48.53;100191.16;302183;32;3994;-78
2023/03/30 00:16:11;;;;;;;270.23;78.27;;;;;;;5.38;49.19;100189.41;306904;32;2556;-78
2023/03/30 00:16:21;;;;;;;271.08;77.90;;;;;;;5.37;49.58;100192.88;298534;32;5145;-78
2023/03/30 00:16:32;;;;;;;269.80;77.47;;;;;;;5.42;49.37;100191.09;295744;33;2888;-78
2023/03/30 00:16:42;;;;;;;269.20;77.10;;;;;;;5.47;48.84;100191.03;298026;33;1337;-78
2023/03/30 00:16:53;;;;;;;268.83;77.57;;;;;;;5.47;49.39;100191.91;296025;32;2987;-78
2023/03/30 00:17:04;;;;;;;267.77;76.75;;;;;;;5.41;52.00;100186.78;296085;33;2897;-79
2023/03/30 00:17:14;;;;;;;269.77;77.87;;;;;;;5.46;51.49;100187.59;297811;33;1249;-78
2023/03/30 00:17:25;;;;;;;267.75;75.45;;;;;;;5.46;50.20;100182.41;297470;33;2133;-78
2023/03/30 00:17:36;;;;;;;266.20;74.90;;;;;;;5.48;51.61;100190.16;296486;33;1897;-79
2023/03/30 00:17:46;;;;;;;265.58;75.05;;;;;;;5.46;51.50;100182.41;295258;32;2558;-79
2023/03/30 00:17:57;;;;;;;268.33;78.67;;;;;;;5.47;51.63;100197.09;294956;33;1339;-79
2023/03/30 00:18:08;;;;;;;271.20;80.42;;;;;;;5.45;50.58;100185.88;293887;33;3222;-79
2023/03/30 00:18:18;;;;;;;272.00;80.30;;;;;;;5.43;50.26;100192.81;292604;33;3992;-79
2023/03/30 00:18:29;;;;;;;271.75;80.07;;;;;;;5.42;51.12;100179.84;292863;33;1386;-79
2023/03/30 00:18:40;;;;;;;272.30;80.57;;;;;;;5.44;51.13;100188.47;294215;33;4274;-78
2023/03/30 00:18:50;;;;;;;272.13;79.53;;;;;;;5.42;50.93;100196.28;294475;33;4406;-78
2023/03/30 00:19:00;;;;;;;273.10;79.40;;;;;;;5.44;51.56;100196.25;293997;33;5092;-78
2023/03/30 00:19:11;;;;;;;271.50;78.55;;;;;;;5.40;51.84;100187.66;296825;33;1435;-78
2023/03/30 00:19:21;;;;;;;272.47;79.17;;;;;;;5.43;52.06;100191.94;292922;33;4042;-78
2023/03/30 00:19:32;;;;;;;271.48;78.75;;;;;;;5.44;52.66;100193.66;288854;33;3238;-77
2023/03/30 00:19:42;;;;;;;272.40;79.15;;;;;;;5.41;53.00;100189.38;286184;34;912;-78
2023/03/30 00:19:53;;;;;;;275.33;80.97;;;;;;;5.44;52.44;100196.25;288611;33;3214;-78
2023/03/30 00:20:08;;;;;;;276.48;80.32;;;;;;;5.45;52.60;100203.19;286022;34;3612;-78
2023/03/30 00:20:19;;;;;;;273.00;78.22;;;;;;;5.40;51.77;100191.97;281530;34;6139;-78
2023/03/30 00:20:31;;;;;;;271.80;77.80;;;;;;;5.36;51.67;100185.97;279541;35;1427;-78
2023/03/30 00:20:41;;;;;;;269.50;77.00;;;;;;;5.42;50.79;100191.09;276415;35;871;-78
2023/03/30 00:20:52;;;;;;;264.77;75.82;;;;;;;5.37;50.92;100192.88;274349;35;5946;-78
2023/03/30 00:21:02;;;;;;;263.05;75.65;;;;;;;5.38;50.90;100196.31;272216;35;6507;-78
2023/03/30 00:21:16;;;;;;;265.57;77.40;;;;;;;5.40;51.25;100197.16;273065;36;1209;-78
2023/03/30 00:21:27;;;;;;;267.08;77.05;;;;;;;5.32;53.27;100179.09;272196;36;908;-78
2023/03/30 00:21:38;;;;;;;267.50;76.78;;;;;;;5.41;52.57;100193.69;271365;36;5313;-78
2023/03/30 00:21:49;;;;;;;272.27;79.37;;;;;;;5.38;52.91;100197.19;268881;36;4921;-78
2023/03/30 00:22:00;;;;;;;276.08;81.40;;;;;;;5.38;52.88;100189.41;266214;37;1374;-79
2023/03/30 00:22:11;;;;;;;276.14;81.32;;;;;;;5.42;52.24;100195.41;263093;37;1579;-79
2023/03/30 00:23:53;;;;;;;256.15;69.61;;;;;;;;;;2495203;27;20942;-79
2023/03/30 00:24:03;;;;;;;266.60;73.03;;;;;;;;;;352849;28;1214;-79
2023/03/30 00:24:14;;;;;;;261.30;71.93;;;;;;;;;;349672;28;3609;-79
2023/03/30 00:24:25;;;;;;;264.43;73.50;;;;;;;;;;345804;28;3203;-78
2023/03/30 00:24:36;;;;;;;264.02;73.00;;;;;;;;;;346246;28;942;-78
2023/03/30 00:24:47;;;;;;;267.57;74.10;;;;;;;;;;348930;28;1310;-78
2023/03/30 00:24:57;;;;;;;267.47;73.40;;;;;;;;;;349981;28;3230;-79
2023/03/30 00:25:08;;;;;;;265.02;73.03;;;;;;;;;;349205;28;1466;-79
2023/03/30 00:25:19;;;;;;;261.75;71.57;;;;;;;;;;350256;28;1286;-79
2023/03/30 00:25:29;;;;;;;262.10;73.40;;;;;;;;;;346454;28;4144;-79
2023/03/30 00:25:40;;;;;;;264.92;74.65;;;;;;;;;;347183;28;3243;-79
2023/03/30 00:25:52;;;;;;;266.65;75.50;;;;;;;;;;350360;28;1070;-78
2023/03/30 00:26:02;;;;;;;264.27;73.07;;;;;;;;;;348131;28;3317;-79
2023/03/30 00:26:13;;;;;;;262.48;73.03;;;;;;;;;;347516;28;1245;-78
2023/03/30 00:26:24;;;;;;;260.47;72.37;;;;;;;;;;345741;28;5784;-78
2023/03/30 00:26:34;;;;;;;260.00;72.28;;;;;;;;;;345618;28;3449;-78
2023/03/30 00:26:45;;;;;;;264.75;72.85;;;;;;;;;;347489;28;3591;-78
2023/03/30 00:26:55;;;;;;;267.65;74.40;;;;;;;;;;346251;28;1326;-79
2023/03/30 00:27:06;;;;;;;270.70;75.00;;;;;;;;;;347297;28;3413;-79
2023/03/30 00:27:16;;;;;;;265.90;73.83;;;;;;;;;;345534;28;1337;-79
2023/03/30 00:27:28;;;;;;;266.15;74.03;;;;;;;;;;344976;28;5494;-78
2023/03/30 00:27:38;;;;;;;263.92;73.63;;;;;;;;;;348804;28;3546;-79
2023/03/30 00:27:50;;;;;;;269.58;75.38;;;;;;;;;;347396;28;1314;-79
2023/03/30 00:28:00;;;;;;;270.42;75.43;;;;;;;;;;347369;28;915;-79
2023/03/30 00:28:10;;;;;;;267.67;74.65;;;;;;;;;;345515;28;1224;-78
2023/03/30 00:28:21;;;;;;;260.47;72.77;;;;;;;;;;344552;28;4151;-78
2023/03/30 00:28:31;;;;;;;261.83;72.93;;;;;;;;;;344275;28;3452;-80
2023/03/30 00:28:42;;;;;;;264.17;73.57;;;;;;;;;;344898;28;1216;-78
2023/03/30 00:28:52;;;;;;;265.52;73.60;;;;;;;;;;344887;28;1199;-78
2023/03/30 00:29:02;;;;;;;264.87;73.70;;;;;;;;;;344461;28;3557;-79
2023/03/30 00:29:12;;;;;;;262.40;72.33;;;;;;;;;;341200;28;1338;-79
2023/03/30 00:29:23;;;;;;;264.70;74.00;;;;;;;;;;344059;28;5022;-79
2023/03/30 00:29:33;;;;;;;265.63;74.68;;;;;;;;;;339585;28;3515;-78
2023/03/30 00:29:43;;;;;;;272.17;77.87;;;;;;;;;;341217;28;1159;-79
2023/03/30 00:29:53;;;;;;;273.67;77.00;;;;;;;;;;343489;28;1530;-79
2023/03/30 00:30:04;;;;;;;274.30;76.80;;;;;;;;;;344218;28;1258;-78
2023/03/30 00:30:16;;;;;;;265.25;73.38;;;;;;;;;;343503;28;3837;-78
2023/03/30 00:30:26;;;;;;;263.65;73.75;;;;;;;;;;343699;28;3313;-79
2023/03/30 00:30:36;;;;;;;264.70;73.68;;;;;;;;;;343434;28;1225;-79
2023/03/30 00:30:47;;;;;;;268.30;75.30;;;;;;;;;;343739;28;1264;-79
2023/03/30 00:30:57;;;;;;;268.60;74.33;;;;;;;;;;341404;28;3526;-79
2023/03/30 00:31:09;;;;;;;263.83;72.05;;;;;;;;;;342360;28;1212;-79
2023/03/30 00:31:19;;;;;;;261.13;70.60;;;;;;;;;;337326;28;4257;-78
2023/03/30 00:31:30;;;;;;;261.57;72.13;;;;;;;;;;342405;28;3362;-78
2023/03/30 00:31:40;;;;;;;268.50;75.07;;;;;;;;;;342373;28;817;-80
2023/03/30 00:31:50;;;;;;;269.87;74.80;;;;;;;;;;341116;28;3045;-80
2023/03/30 00:32:01;;;;;;;269.80;74.27;;;;;;;;;;341520;28;1416;-80
2023/03/30 00:32:11;;;;;;;263.60;72.18;;;;;;;;;;340790;28;3968;-80
2023/03/30 00:32:21;;;;;;;264.77;74.87;;;;;;;;;;340609;28;5694;-78
2023/03/30 00:32:33;;;;;;;265.03;75.40;;;;;;;;;;342599;28;1578;-79
2023/03/30 00:32:43;;;;;;;269.85;77.53;;;;;;;;;;341959;28;1563;-78
2023/03/30 00:32:53;;;;;;;268.27;76.20;;;;;;;;;;339994;29;3565;-79
2023/03/30 00:33:04;;;;;;;265.27;73.68;;;;;;;;;;342804;28;956;-79
2023/03/30 00:33:14;;;;;;;263.83;73.20;;;;;;;;;;341258;28;4203;-78
2023/03/30 00:33:25;;;;;;;263.80;72.68;;;;;;;;;;341036;28;3447;-78
2023/03/30 00:33:35;;;;;;;268.03;75.23;;;;;;;;;;345758;28;1188;-78
2023/03/30 00:33:46;;;;;;;267.50;73.85;;;;;;;;;;344426;28;1460;-78
2023/03/30 00:33:56;;;;;;;267.27;74.47;;;;;;;;;;346015;28;3632;-78
2023/03/30 00:34:06;;;;;;;263.52;73.53;;;;;;;;;;341228;28;3787;-79
2023/03/30 00:34:16;;;;;;;263.73;74.67;;;;;;;;;;338039;28;5228;-78
2023/03/30 00:34:27;;;;;;;265.30;74.33;;;;;;;;;;340058;28;3569;-78
2023/03/30 00:34:37;;;;;;;270.40;76.40;;;;;;;;;;342782;28;1182;-79
2023/03/30 00:34:47;;;;;;;270.50;76.47;;;;;;;;;;338571;28;3507;-78
2023/03/30 00:34:57;;;;;;;269.03;76.20;;;;;;;;;;336860;29;1570;-78
2023/03/30 00:35:09;;;;;;;262.67;73.20;;;;;;;;;;336188;29;3981;-78
2023/03/30 00:35:19;;;;;;;261.27;72.50;;;;;;;;;;336558;29;3365;-78
2023/03/30 00:35:31;;;;;;;263.20;72.65;;;;;;;;;;337402;29;944;-79
2023/03/30 00:35:41;;;;;;;263.17;72.78;;;;;;;;;;335757;29;1297;-79
2023/03/30 00:35:52;;;;;;;264.30;73.13;;;;;;;;;;339935;28;3548;-79
2023/03/30 00:36:02;;;;;;;259.90;71.93;;;;;;;;;;339300;29;3700;-79
2023/03/30 00:36:12;;;;;;;262.83;72.70;;;;;;;;;;333796;29;5661;-78
2023/03/30 00:36:23;;;;;;;262.50;72.47;;;;;;;;;;330908;29;3525;-78
2023/03/30 00:36:36;;;;;;;272.80;79.67;;;;;;;;;;325085;29;2285;-79
2023/03/30 00:36:47;;;;;;;272.90;81.15;;;;;;;;;;326022;30;3299;-79
2023/03/30 00:36:58;;;;;;;268.90;79.93;;;;;;;;;;324413;30;2565;-79
2023/03/30 00:37:08;;;;;;;261.57;72.67;;;;;;;;;;325591;30;3626;-79
2023/03/30 00:37:18;;;;;;;262.23;73.27;;;;;;;;;;325317;30;4791;-79
2023/03/30 00:37:28;;;;;;;263.52;73.63;;;;;;;;;;327616;30;3681;-79
2023/03/30 00:37:39;;;;;;;264.93;74.70;;;;;;;;;;328001;30;1325;-78
2023/03/30 00:37:50;;;;;;;264.63;74.27;;;;;;;;;;328872;29;3535;-78
2023/03/30 00:38:02;;;;;;;264.77;74.88;;;;;;;;;;324670;30;2167;-78
2023/03/30 00:38:12;;;;;;;264.02;74.90;;;;;;;;;;321389;30;3582;-78
2023/03/30 00:38:22;;;;;;;267.08;76.32;;;;;;;;;;316822;31;5614;-78
2023/03/30 00:38:32;;;;;;;273.10;78.00;;;;;;;;;;315403;31;3611;-78
2023/03/30 00:38:44;;;;;;;278.07;79.90;;;;;;;;;;314654;31;3258;-78
2023/03/30 00:38:54;;;;;;;274.55;78.13;;;;;;;;;;315229;31;3648;-79
2023/03/30 00:39:07;;;;;;;265.27;74.37;;;;;;;;;;313210;31;2998;-78
2023/03/30 00:39:17;;;;;;;261.80;72.13;;;;;;;;;;312535;31;4068;-78
2023/03/30 00:39:28;;;;;;;261.77;71.97;;;;;;;;;;313207;31;3475;-79
2023/03/30 00:39:38;;;;;;;264.92;73.22;;;;;;;;;;315341;31;886;-78
2023/03/30 00:39:51;;;;;;;265.83;74.13;;;;;;;;;;317369;31;2158;-78
2023/03/30 00:40:06;;;;;;;264.83;74.63;;;;;;;;;;315469;31;2990;-78
2023/03/30 00:40:18;;;;;;;265.65;75.82;;;;;;;;;;310217;31;5010;-79
2023/03/30 00:40:28;;;;;;;268.05;76.60;;;;;;;;;;307417;31;3516;-79
2023/03/30 00:40:39;;;;;;;275.35;80.03;;;;;;;;;;306362;32;1207;-78
2023/03/30 00:40:58;;;;;;;277.13;80.20;;;;;;;;;;300443;32;4452;-78
2023/03/30 00:41:08;;;;;;;269.65;76.30;;;;;;;;;;297948;32;4048;-79
2023/03/30 00:41:18;;;;;;;265.77;75.30;;;;;;;;;;296655;33;4309;-78
2023/03/30 00:41:29;;;;;;;267.13;75.40;;;;;;;;;;294518;33;3720;-80
2023/03/30 00:41:39;;;;;;;270.10;75.70;;;;;;;;;;294149;33;1048;-80
2023/03/30 00:41:50;;;;;;;268.50;74.93;;;;;;;;;;295197;33;3557;-80
2023/03/30 00:42:23;;;;;;;267.15;75.50;;;;;;;;;;293793;33;4133;-78
2023/03/30 00:42:34;;;;;;;271.60;75.72;;;;;;;;;;287991;33;5094;-78
2023/03/30 00:42:45;;;;;;;272.35;77.07;;;;;;;;;;286189;33;5807;-78
2023/03/30 00:43:05;;;;;;;271.70;76.90;;;;;;;;;;284975;34;1498;-78
2023/03/30 00:43:15;;;;;;;264.60;76.20;;;;;;;;;;282168;34;5906;-79
2023/03/30 00:43:26;;;;;;;267.58;78.10;;;;;;;;;;281502;35;3608;-78
2023/03/30 00:43:55;;;;;;;273.00;79.63;;;;;;;;;;283815;34;5975;-79
2023/03/30 00:44:06;;;;;;;264.92;74.47;;;;;;;;;;279970;34;4965;-80
2023/03/30 00:46:07;;;;;;;253.24;69.18;;;;;;;;;;2454140;27;20535;-79
2023/03/30 00:46:18;;;;;;;258.77;72.00;;;;;;;;;;349110;28;884;-79
2023/03/30 00:46:29;;;;;;;265.47;73.67;;;;;;;;;;347566;28;1304;-79
2023/03/30 00:46:42;;;;;;;265.90;73.22;;;;;;;;;;346256;28;3619;-80
2023/03/30 00:46:53;;;;;;;260.85;70.65;;;;;;;;;;343632;28;1431;-77
2023/03/30 00:47:04;;;;;;;257.88;69.60;;;;;;;;;;341324;28;3967;-78
2023/03/30 00:47:14;;;;;;;258.87;71.10;;;;;;;;;;343048;28;3259;-78
2023/03/30 00:47:25;;;;;;;261.92;72.15;;;;;;;;;;345312;28;1279;-80
2023/03/30 00:47:36;;;;;;;265.02;74.03;;;;;;;;;;346402;28;1274;-80
2023/03/30 00:47:55;;;;;;;265.38;74.85;;;;;;;;;;345320;28;3494;-79
2023/03/30 00:48:23;;;;;;;258.52;72.40;;;;;;;;;;343644;28;5101;-79
2023/03/30 00:48:35;;;;;;;261.60;70.75;;;;;;;;;;344765;28;1014;-79
2023/03/30 00:48:47;;;;;;;261.83;71.97;;;;;;;;;;344653;28;3639;-79
2023/03/30 00:48:59;;;;;;;259.50;71.44;;;;;;;;;;344077;28;3964;-79
2023/03/30 00:49:09;;;;;;;259.98;71.30;;;;;;;;;;344226;28;5144;-79
2023/03/30 00:49:20;;;;;;;262.20;71.77;;;;;;;;;;346205;28;1341;-79
2023/03/30 00:49:30;;;;;;;266.38;73.25;;;;;;;;;;346396;28;856;-79
2023/03/30 00:49:41;;;;;;;264.80;72.73;;;;;;;;;;345281;28;5974;-78
2023/03/30 00:49:51;;;;;;;263.67;72.30;;;;;;;;;;344618;28;1322;-79
2023/03/30 00:50:02;;;;;;;261.05;71.28;;;;;;;;;;343629;28;3731;-78
2023/03/30 00:50:13;;;;;;;260.10;70.88;;;;;;;;;;343031;28;5605;-78
2023/03/30 00:50:26;;;;;;;260.48;71.60;;;;;;;;;;342406;28;3568;-79
2023/03/30 00:50:40;;;;;;;265.60;73.60;;;;;;;;;;344814;28;1348;-79
2023/03/30 00:50:52;;;;;;;267.85;73.13;;;;;;;;;;345384;28;1581;-80
2023/03/30 00:51:09;;;;;;;262.75;71.40;;;;;;;;;;340767;28;5195;-79
2023/03/30 00:51:19;;;;;;;263.10;72.40;;;;;;;;;;339950;29;3495;-79
2023/03/30 00:51:30;;;;;;;264.13;72.97;;;;;;;;;;342144;28;1266;-79
2023/03/30 00:51:40;;;;;;;263.95;72.95;;;;;;;;;;341970;28;3537;-78
2023/03/30 00:51:50;;;;;;;263.23;73.37;;;;;;;;;;341638;28;906;-79
2023/03/30 00:52:02;;;;;;;260.15;71.72;;;;;;;;;;340447;28;5032;-80
2023/03/30 00:52:12;;;;;;;262.17;72.53;;;;;;;;;;339959;29;3471;-79
2023/03/30 00:52:23;;;;;;;263.07;73.13;;;;;;;;;;342250;28;1389;-80
2023/03/30 00:52:36;;;;;;;263.92;73.68;;;;;;;;;;339587;29;921;-79
2023/03/30 00:52:47;;;;;;;263.83;72.70;;;;;;;;;;340540;29;1170;-78
2023/03/30 00:52:57;;;;;;;261.93;72.00;;;;;;;;;;339992;29;893;-79
2023/03/30 00:53:09;;;;;;;260.33;71.82;;;;;;;;;;337373;29;3797;-79
2023/03/30 00:53:21;;;;;;;259.55;71.35;;;;;;;;;;342580;28;3621;-79
2023/03/30 00:53:38;;;;;;;264.98;73.20;;;;;;;;;;340841;29;1291;-79
2023/03/30 00:53:49;;;;;;;266.48;73.03;;;;;;;;;;339852;29;939;-79
2023/03/30 00:54:02;;;;;;;261.48;71.43;;;;;;;;;;341288;28;3514;-79
2023/03/30 00:54:14;;;;;;;261.67;72.78;;;;;;;;;;340765;28;5311;-80
2023/03/30 00:54:24;;;;;;;262.65;73.85;;;;;;;;;;340928;29;836;-80
2023/03/30 00:54:35;;;;;;;270.13;77.13;;;;;;;;;;340968;28;1433;-78
2023/03/30 00:54:45;;;;;;;269.33;75.70;;;;;;;;;;339832;28;3669;-80
2023/03/30 00:54:55;;;;;;;266.43;73.73;;;;;;;;;;339178;29;1262;-79
2023/03/30 00:55:06;;;;;;;260.27;71.10;;;;;;;;;;339628;28;4147;-79
2023/03/30 00:55:17;;;;;;;262.35;72.25;;;;;;;;;;338348;28;3271;-79
2023/03/30 00:55:27;;;;;;;261.87;73.17;;;;;;;;;;337171;29;1287;-79
2023/03/30 00:55:39;;;;;;;262.73;73.05;;;;;;;;;;337476;29;799;-79
2023/03/30 00:55:50;;;;;;;260.60;71.03;;;;;;;;;;336946;29;888;-79
2023/03/30 00:56:01;;;;;;;260.08;70.85;;;;;;;;;;337527;29;2011;-78
2023/03/30 00:56:12;;;;;;;262.20;71.47;;;;;;;;;;334615;29;4068;-78
2023/03/30 00:56:25;;;;;;;264.73;73.45;;;;;;;;;;331485;29;3540;-79
2023/03/30 00:56:36;;;;;;;267.73;74.00;;;;;;;;;;330427;29;2032;-79
2023/03/30 00:56:46;;;;;;;265.17;72.97;;;;;;;;;;329407;29;3479;-79
2023/03/30 00:56:56;;;;;;;262.13;72.03;;;;;;;;;;329395;30;859;-79
2023/03/30 00:57:06;;;;;;;263.77;72.83;;;;;;;;;;325778;30;3924;-79
2023/03/30 00:57:17;;;;;;;264.23;74.23;;;;;;;;;;325617;30;3540;-79
2023/03/30 00:57:27;;;;;;;267.58;75.85;;;;;;;;;;326699;30;1765;-79
2023/03/30 00:57:38;;;;;;;266.15;75.38;;;;;;;;;;327078;30;1429;-79
2023/03/30 00:57:50;;;;;;;266.45;74.97;;;;;;;;;;326380;30;1372;-80
2023/03/30 00:58:00;;;;;;;261.90;73.00;;;;;;;;;;326240;30;4053;-79
2023/03/30 00:58:11;;;;;;;262.52;73.18;;;;;;;;;;324206;30;3057;-79
2023/03/30 00:58:21;;;;;;;265.77;74.00;;;;;;;;;;319789;30;2248;-78
2023/03/30 00:58:31;;;;;;;270.97;75.60;;;;;;;;;;321243;30;2227;-78
2023/03/30 00:58:42;;;;;;;269.30;75.60;;;;;;;;;;322333;30;3500;-80
2023/03/30 00:58:53;;;;;;;266.58;75.75;;;;;;;;;;319016;30;1393;-80
2023/03/30 00:59:03;;;;;;;261.17;73.72;;;;;;;;;;316582;30;3246;-78
2023/03/30 00:59:14;;;;;;;261.77;72.90;;;;;;;;;;316019;31;3249;-79
2023/03/30 00:59:25;;;;;;;267.00;74.40;;;;;;;;;;312923;31;1352;-79
2023/03/30 00:59:35;;;;;;;270.67;76.13;;;;;;;;;;314128;31;2237;-79
2023/03/30 00:59:46;;;;;;;271.30;75.67;;;;;;;;;;310565;31;3572;-79
2023/03/30 00:59:56;;;;;;;268.85;74.72;;;;;;;;;;306975;31;3742;-79
2023/03/30 01:00:07;;;;;;;265.53;74.30;;;;;;;;;;307689;31;4261;-79
2023/03/30 01:00:18;;;;;;;260.55;73.35;;;;;;;;;;306232;32;3755;-79
2023/03/30 01:00:28;;;;;;;261.52;73.18;;;;;;;;;;306366;31;3070;-79
2023/03/30 01:00:38;;;;;;;262.10;72.87;;;;;;;;;;305862;32;3572;-79
2023/03/30 01:00:49;;;;;;;262.40;73.20;;;;;;;;;;308674;31;2997;-80
2023/03/30 01:01:00;;;;;;;261.30;73.87;;;;;;;;;;306082;31;3679;-80
2023/03/30 01:01:11;;;;;;;264.13;76.38;;;;;;;;;;305778;32;3570;-80
2023/03/30 01:01:27;;;;;;;271.98;79.82;;;;;;;;;;307395;32;2584;-78
2023/03/30 01:01:39;;;;;;;268.67;77.30;;;;;;;;;;306928;32;3735;-79
2023/03/30 01:01:49;;;;;;;262.63;74.10;;;;;;;;;;307471;32;2384;-79
2023/03/30 01:02:00;;;;;;;260.73;73.77;;;;;;;;;;304985;32;3999;-79
2023/03/30 01:02:10;;;;;;;262.33;73.53;;;;;;;;;;306673;32;3163;-79
2023/03/30 01:02:20;;;;;;;264.57;73.70;;;;;;;;;;305022;32;3038;-79
2023/03/30 01:02:31;;;;;;;267.25;74.25;;;;;;;;;;303252;32;3301;-79
2023/03/30 01:02:42;;;;;;;265.93;73.77;;;;;;;;;;301432;32;3579;-79
2023/03/30 01:02:55;;;;;;;262.50;73.55;;;;;;;;;;301181;32;1299;-80
2023/03/30 01:03:10;;;;;;;264.08;75.30;;;;;;;;;;298607;32;4235;-79
2023/03/30 01:03:21;;;;;;;268.20;77.38;;;;;;;;;;296831;32;3449;-79
2023/03/30 01:03:32;;;;;;;274.27;80.40;;;;;;;;;;293906;33;3184;-79
2023/03/30 01:03:44;;;;;;;275.15;80.88;;;;;;;;;;291557;33;3588;-78
2023/03/30 01:03:56;;;;;;;270.73;77.63;;;;;;;;;;295086;33;1435;-78
2023/03/30 01:04:06;;;;;;;267.08;75.10;;;;;;;;;;292660;33;3888;-78
2023/03/30 01:04:17;;;;;;;267.07;75.67;;;;;;;;;;293331;33;3474;-78
2023/03/30 01:04:28;;;;;;;266.88;76.13;;;;;;;;;;293822;33;3284;-79
2023/03/30 01:04:38;;;;;;;266.70;76.28;;;;;;;;;;293136;33;1304;-79
2023/03/30 01:04:50;;;;;;;265.30;75.85;;;;;;;;;;290417;33;4435;-78
2023/03/30 01:05:00;;;;;;;263.50;75.63;;;;;;;;;;290329;33;4805;-78
2023/03/30 01:05:10;;;;;;;265.53;76.83;;;;;;;;;;289276;33;4276;-79
2023/03/30 01:05:22;;;;;;;267.45;77.45;;;;;;;;;;284678;33;4792;-79
2023/03/30 01:05:33;;;;;;;271.90;78.78;;;;;;;;;;286385;34;4860;-79
2023/03/30 01:05:43;;;;;;;271.55;78.82;;;;;;;;;;285004;34;5656;-79
2023/03/30 01:05:54;;;;;;;274.10;80.17;;;;;;;;;;282391;35;1353;-79
2023/03/30 01:06:06;;;;;;;267.23;77.55;;;;;;;;;;276111;34;5061;-80
2023/03/30 01:06:16;;;;;;;265.96;76.58;;;;;;;;;;276945;35;4522;-80
2023/03/30 01:06:28;;;;;;;269.60;77.67;;;;;;;;;;280553;35;3675;-80
2023/03/30 01:06:39;;;;;;;269.02;76.03;;;;;;;;;;275097;35;3297;-80